createdAt,value
2023-02-02T00:01:37.442Z,99799.13
2023-02-02T00:04:06.363Z,99798.31
2023-02-02T00:06:35.152Z,99812.69
2023-02-02T00:09:04.311Z,99809.03
2023-02-02T00:11:32.415Z,99788.88
2023-02-02T00:14:01.061Z,99823.41
2023-02-02T00:16:39.340Z,99826.06
2023-02-02T00:19:09.704Z,99841.16
2023-02-02T00:21:38.914Z,99839.47
2023-02-02T00:24:08.254Z,99844.81
2023-02-02T00:26:37.277Z,99850.16
2023-02-02T00:29:06.831Z,99753.56
2023-02-02T00:31:35.659Z,99859.22
2023-02-02T00:34:05.201Z,99786.66
2023-02-02T00:36:33.369Z,99865.41
2023-02-02T00:39:01.490Z,99804.59
2023-02-02T00:41:29.581Z,99847.75
2023-02-02T00:44:15.338Z,99786.13
2023-02-02T00:46:43.775Z,99878.81
2023-02-02T00:49:13.300Z,99882.28
2023-02-02T00:51:41.495Z,99892.19
2023-02-02T00:54:09.744Z,99898.34
2023-02-02T00:56:37.851Z,99895.69
2023-02-02T00:59:05.963Z,99903.72
2023-02-02T01:01:34.096Z,99904.72
2023-02-02T01:04:02.374Z,99919.78
2023-02-02T01:06:32.326Z,99927.81
2023-02-02T01:09:00.506Z,99951.91
2023-02-02T01:11:28.685Z,99864.41
2023-02-02T01:13:56.789Z,99946.56
2023-02-02T01:16:25.033Z,99953.63
2023-02-02T01:18:53.797Z,99946.84
2023-02-02T01:21:22.200Z,99948.25
2023-02-02T01:23:52.012Z,99954.59
2023-02-02T01:26:20.192Z,99962.63
2023-02-02T01:28:48.310Z,99964.63
2023-02-02T01:31:18.270Z,99962.63
2023-02-02T01:33:47.933Z,99981.22
2023-02-02T01:36:18.725Z,99921.84
2023-02-02T01:38:47.254Z,100003.78
2023-02-02T01:41:19.225Z,100005.47
2023-02-02T01:43:56.721Z,100012.53
2023-02-02T01:46:27.664Z,99915.66
2023-02-02T01:49:02.486Z,100010.81
2023-02-02T01:51:37.116Z,100016.16
2023-02-02T01:54:09.296Z,99838.00
2023-02-02T01:56:42.874Z,100020.69
2023-02-02T01:59:11.964Z,99949.97
2023-02-02T02:01:40.075Z,100005.28
2023-02-02T02:04:08.285Z,99964.78
2023-02-02T02:06:36.690Z,100053.66
2023-02-02T02:09:07.693Z,100080.44
2023-02-02T02:11:38.140Z,100075.38
2023-02-02T02:14:27.588Z,100085.78
2023-02-02T02:17:07.747Z,100085.78
2023-02-02T02:20:22.890Z,100102.84
2023-02-02T02:23:32.807Z,100018.84
2023-02-02T02:26:37.185Z,100109.22
2023-02-02T02:29:32.593Z,100052.78
2023-02-02T02:32:23.532Z,100135.97
2023-02-02T02:34:58.990Z,100146.69
2023-02-02T02:37:35.033Z,100144.97
2023-02-02T02:40:10.481Z,100143.31
2023-02-02T02:42:43.010Z,100048.06
2023-02-02T02:45:13.178Z,100140.78
2023-02-02T02:47:43.765Z,100150.34
2023-02-02T02:50:12.681Z,100161.06
2023-02-02T02:52:42.545Z,100155.69
2023-02-02T02:55:13.191Z,100161.06
2023-02-02T02:58:06.074Z,100166.41
2023-02-02T03:00:49.779Z,100173.47
2023-02-02T03:03:42.077Z,100173.47
2023-02-02T03:06:18.082Z,100179.78
2023-02-02T03:08:51.967Z,100177.13
2023-02-02T03:11:20.872Z,100160.84
2023-02-02T03:13:49.497Z,100143.97
2023-02-02T03:16:18.756Z,100152.16
2023-02-02T03:18:48.392Z,100205.59
2023-02-02T03:21:16.656Z,100119.53
2023-02-02T03:23:44.807Z,100216.31
2023-02-02T03:26:12.993Z,100223.34
2023-02-02T03:28:41.780Z,100223.34
2023-02-02T03:31:10.129Z,100227.69
2023-02-02T03:33:38.905Z,100235.88
2023-02-02T03:36:09.445Z,100235.72
2023-02-02T03:38:37.498Z,100245.75
2023-02-02T03:41:06.797Z,100256.31
2023-02-02T03:43:35.275Z,100161.22
2023-02-02T03:46:05.608Z,100264.34
2023-02-02T03:48:37.629Z,100267.19
2023-02-02T03:51:11.986Z,100280.44
2023-02-02T03:53:40.349Z,100279.72
2023-02-02T03:56:08.666Z,100284.22
2023-02-02T03:58:36.724Z,100291.28
2023-02-02T04:01:06.116Z,100223.75
2023-02-02T04:03:34.874Z,100302.00
2023-02-02T04:06:03.106Z,100302.81
2023-02-02T04:08:32.617Z,100305.34
2023-02-02T04:11:00.824Z,100298.31
2023-02-02T04:13:28.883Z,100298.31
2023-02-02T04:16:01.462Z,100305.63
2023-02-02T04:18:30.383Z,100318.88
2023-02-02T04:20:59.786Z,100328.75
2023-02-02T04:23:29.086Z,100237.78
2023-02-02T04:25:59.180Z,100338.63
2023-02-02T04:28:28.794Z,100249.06
2023-02-02T04:30:57.903Z,100360.91
2023-02-02T04:33:27.885Z,100257.53
2023-02-02T04:35:56.357Z,100355.53
2023-02-02T04:38:24.432Z,100360.91
2023-02-02T04:40:52.552Z,100376.97
2023-02-02T04:43:21.980Z,100384.00
2023-02-02T04:45:50.399Z,100385.00
2023-02-02T04:48:18.564Z,100386.81
2023-02-02T04:50:46.577Z,100395.72
2023-02-02T04:53:14.683Z,100385.97
2023-02-02T04:55:42.770Z,100331.34
2023-02-02T04:58:10.801Z,100396.66
2023-02-02T05:00:40.334Z,100402.31
2023-02-02T05:03:08.384Z,100407.38
2023-02-02T05:05:36.452Z,100401.19
2023-02-02T05:08:05.017Z,100402.03
2023-02-02T05:10:33.279Z,100411.06
2023-02-02T05:13:01.368Z,100418.09
2023-02-02T05:15:29.468Z,100418.94
2023-02-02T05:17:59.109Z,100411.34
2023-02-02T05:20:27.194Z,100348.75
2023-02-02T05:22:55.314Z,100431.47
2023-02-02T05:25:23.645Z,100305.94
2023-02-02T05:27:51.930Z,100442.91
2023-02-02T05:30:20.032Z,100445.72
2023-02-02T05:32:48.089Z,100435.00
2023-02-02T05:35:17.641Z,100461.78
2023-02-02T05:37:45.765Z,100460.13
2023-02-02T05:40:14.264Z,100466.28
2023-02-02T05:42:42.417Z,100471.94
2023-02-02T05:45:11.638Z,100478.72
2023-02-02T05:47:39.662Z,100481.53
2023-02-02T05:50:08.415Z,100488.56
2023-02-02T05:52:39.952Z,100492.09
2023-02-02T05:55:09.935Z,100426.53
2023-02-02T05:57:37.956Z,100510.84
2023-02-02T06:00:07.303Z,100412.94
2023-02-02T06:02:35.352Z,100521.56
2023-02-02T06:05:03.458Z,100531.41
2023-02-02T06:07:31.583Z,100534.94
2023-02-02T06:10:01.131Z,100543.94
2023-02-02T06:12:29.150Z,100546.63
2023-02-02T06:14:57.170Z,100551.97
2023-02-02T06:17:25.231Z,100543.81
2023-02-02T06:19:53.375Z,100558.19
2023-02-02T06:22:21.635Z,100480.19
2023-02-02T06:24:49.721Z,100560.00
2023-02-02T06:27:19.232Z,100568.03
2023-02-02T06:29:47.350Z,100556.91
2023-02-02T06:32:15.407Z,100565.22
2023-02-02T06:34:43.442Z,100575.13
2023-02-02T06:37:11.579Z,100567.09
2023-02-02T06:39:39.655Z,100571.00
2023-02-02T06:42:20.278Z,100566.38
2023-02-02T06:44:50.496Z,100576.06
2023-02-02T06:47:18.676Z,100433.41
2023-02-02T06:49:46.720Z,100593.13
2023-02-02T06:52:14.798Z,100600.19
2023-02-02T06:54:42.821Z,100609.22
2023-02-02T06:57:10.888Z,100612.75
2023-02-02T06:59:41.076Z,100617.97
2023-02-02T07:02:13.547Z,100621.59
2023-02-02T07:04:41.637Z,100621.59
2023-02-02T07:07:09.762Z,100556.59
2023-02-02T07:09:37.897Z,100635.97
2023-02-02T07:12:06.077Z,100635.97
2023-02-02T07:14:34.196Z,100634.31
2023-02-02T07:17:02.220Z,100637.81
2023-02-02T07:19:31.696Z,100633.44
2023-02-02T07:21:59.731Z,100645.00
2023-02-02T07:24:28.881Z,100643.28
2023-02-02T07:26:58.212Z,100644.16
2023-02-02T07:29:26.813Z,100568.94
2023-02-02T07:31:55.036Z,100654.00
2023-02-02T07:34:23.366Z,100494.69
2023-02-02T07:36:53.071Z,100666.44
2023-02-02T07:39:21.139Z,100576.81
2023-02-02T07:41:49.285Z,100682.50
2023-02-02T07:44:17.649Z,100688.69
2023-02-02T07:46:47.289Z,100698.56
2023-02-02T07:49:17.199Z,100703.91
2023-02-02T07:51:48.048Z,100703.91
2023-02-02T07:54:17.767Z,100633.22
2023-02-02T07:56:45.898Z,100723.63
2023-02-02T07:59:14.353Z,100653.25
2023-02-02T08:01:42.526Z,100727.28
2023-02-02T08:04:10.714Z,100728.97
2023-02-02T08:06:40.979Z,100738.00
2023-02-02T08:09:10.357Z,100745.03
2023-02-02T08:11:40.120Z,100755.75
2023-02-02T08:14:08.648Z,100766.47
2023-02-02T08:16:36.862Z,100769.16
2023-02-02T08:19:05.070Z,100778.03
2023-02-02T08:21:34.926Z,100782.53
2023-02-02T08:24:04.654Z,100782.53
2023-02-02T08:26:33.476Z,100786.22
2023-02-02T08:29:05.252Z,100782.53
2023-02-02T08:31:35.216Z,100780.84
2023-02-02T08:34:03.623Z,100777.19
2023-02-02T08:36:35.461Z,100785.34
2023-02-02T08:39:05.094Z,100708.16
2023-02-02T08:41:33.885Z,100787.19
2023-02-02T08:44:06.142Z,100787.91
2023-02-02T08:46:34.275Z,100781.84
2023-02-02T08:49:02.466Z,100788.88
2023-02-02T08:51:30.636Z,100722.75
2023-02-02T08:53:58.800Z,100800.00
2023-02-02T08:56:26.954Z,100813.97
2023-02-02T08:58:58.202Z,100823.69
2023-02-02T09:01:29.346Z,100831.72
2023-02-02T09:03:59.379Z,100839.75
2023-02-02T09:06:30.385Z,100853.16
2023-02-02T09:08:58.627Z,100852.41
2023-02-02T09:11:27.066Z,100861.19
2023-02-02T09:13:57.301Z,100863.88
2023-02-02T09:16:28.216Z,100706.25
2023-02-02T09:18:57.120Z,100783.22
2023-02-02T09:21:26.172Z,100871.91
2023-02-02T09:23:55.122Z,100887.97
2023-02-02T09:26:25.533Z,100802.41
2023-02-02T09:28:55.272Z,100899.53
2023-02-02T09:31:24.485Z,100900.38
2023-02-02T09:33:55.819Z,100905.84
2023-02-02T09:36:26.968Z,100909.38
2023-02-02T09:38:55.253Z,100915.00
2023-02-02T09:41:54.283Z,100755.78
2023-02-02T09:44:34.374Z,100925.44
2023-02-02T09:47:16.730Z,100843.84
2023-02-02T09:49:56.315Z,100929.13
2023-02-02T09:52:29.061Z,100929.13
2023-02-02T09:55:01.823Z,100953.22
2023-02-02T09:57:37.189Z,100939.84
2023-02-02T10:00:07.219Z,100944.31
2023-02-02T10:02:42.339Z,100938.13
2023-02-02T10:05:17.408Z,100943.34
2023-02-02T10:07:49.590Z,100943.47
2023-02-02T10:10:23.529Z,100938.97
2023-02-02T10:12:55.927Z,100954.19
2023-02-02T10:15:33.600Z,100955.91
2023-02-02T10:18:11.173Z,100844.81
2023-02-02T10:20:47.801Z,100952.75
2023-02-02T10:23:26.650Z,100964.88
2023-02-02T10:26:02.801Z,100960.66
2023-02-02T10:28:43.974Z,100868.25
2023-02-02T10:31:23.559Z,100971.97
2023-02-02T10:34:03.730Z,100975.47
2023-02-02T10:36:48.575Z,100900.91
2023-02-02T10:39:26.270Z,100982.69
2023-02-02T10:42:06.713Z,100988.03
2023-02-02T10:44:44.529Z,100995.09
2023-02-02T10:47:17.939Z,100991.66
2023-02-02T10:49:46.577Z,100998.75
2023-02-02T10:52:19.013Z,100879.69
2023-02-02T10:54:59.481Z,101005.78
2023-02-02T10:58:01.971Z,101012.13
2023-02-02T11:00:37.050Z,100927.69
2023-02-02T11:03:07.315Z,101025.53
2023-02-02T11:05:52.833Z,101021.25
2023-02-02T11:08:26.758Z,101022.84
2023-02-02T11:10:58.199Z,101023.56
2023-02-02T11:13:32.330Z,101027.22
2023-02-02T11:16:28.462Z,101036.94
2023-02-02T11:19:01.050Z,101034.38
2023-02-02T11:21:31.338Z,101027.22
2023-02-02T11:24:03.572Z,101023.81
2023-02-02T11:26:44.206Z,101012.25
2023-02-02T11:29:17.500Z,101014.81
2023-02-02T11:31:46.244Z,100921.50
2023-02-02T11:34:22.887Z,101013.09
2023-02-02T11:37:02.858Z,101007.72
2023-02-02T11:39:32.264Z,101001.28
2023-02-02T11:42:02.788Z,101002.13
2023-02-02T11:44:34.438Z,101005.78
2023-02-02T11:47:05.539Z,101016.50
2023-02-02T11:49:38.721Z,101016.50
2023-02-02T11:52:15.122Z,101025.53
2023-02-02T11:54:49.261Z,101020.88
2023-02-02T11:57:20.511Z,101023.56
2023-02-02T11:59:50.502Z,101028.91
2023-02-02T12:02:30.594Z,101040.72
2023-02-02T12:05:15.176Z,101041.59
2023-02-02T12:07:44.609Z,101037.94
2023-02-02T12:10:21.345Z,100955.41
2023-02-02T12:12:57.698Z,101049.50
2023-02-02T12:15:38.510Z,101039.63
2023-02-02T12:18:20.942Z,101023.81
2023-02-02T12:20:57.450Z,101032.56
2023-02-02T12:23:40.808Z,101036.25
2023-02-02T12:26:22.882Z,101037.06
2023-02-02T12:29:04.870Z,101013.13
2023-02-02T12:31:44.203Z,101036.25
2023-02-02T12:34:22.914Z,101041.59
2023-02-02T12:37:03.231Z,100944.34
2023-02-02T12:39:40.933Z,101041.59
2023-02-02T12:42:42.490Z,101044.28
2023-02-02T12:45:50.596Z,101050.59
2023-02-02T12:48:32.876Z,101046.94
2023-02-02T12:51:11.298Z,101052.31
2023-02-02T12:54:32.930Z,100947.88
2023-02-02T12:57:03.533Z,101063.84
2023-02-02T12:59:55.351Z,101056.66
2023-02-02T13:02:32.732Z,101057.66
2023-02-02T13:05:16.519Z,101056.78
2023-02-02T13:07:48.842Z,101061.28
2023-02-02T13:10:23.451Z,101061.28
2023-02-02T13:12:56.471Z,101066.66
2023-02-02T13:15:33.904Z,101075.41
2023-02-02T13:18:05.743Z,101076.41
2023-02-02T13:20:40.294Z,101086.13
2023-02-02T13:23:14.701Z,101086.13
2023-02-02T13:25:48.776Z,101103.88
2023-02-02T13:28:38.296Z,101106.81
2023-02-02T13:31:14.141Z,101112.91
2023-02-02T13:33:44.859Z,101114.59
2023-02-02T13:36:25.647Z,101105.63
2023-02-02T13:38:56.723Z,101109.25
2023-02-02T13:41:25.865Z,101043.47
2023-02-02T13:44:01.516Z,101099.53
2023-02-02T13:46:39.308Z,101107.56
2023-02-02T13:49:13.456Z,101109.25
2023-02-02T13:52:03.823Z,101119.13
2023-02-02T13:55:03.877Z,101119.50
2023-02-02T13:57:56.996Z,101120.94
2023-02-02T14:00:26.949Z,101128.97
2023-02-02T14:02:59.342Z,101127.28
2023-02-02T14:05:30.330Z,101143.34
2023-02-02T14:08:03.409Z,101144.19
2023-02-02T14:10:35.368Z,101146.97
2023-02-02T14:13:32.965Z,101147.72
2023-02-02T14:16:03.626Z,101148.72
2023-02-02T14:18:56.244Z,101150.41
2023-02-02T14:22:13.123Z,101150.41
2023-02-02T14:24:53.664Z,101148.72
2023-02-02T14:27:57.099Z,101149.91
2023-02-02T14:30:28.788Z,101152.34
2023-02-02T14:33:39.976Z,100996.63
2023-02-02T14:36:15.304Z,101094.56
2023-02-02T14:39:23.642Z,101170.13
2023-02-02T14:42:40.294Z,101184.47
2023-02-02T14:45:27.248Z,101184.47
2023-02-02T14:47:58.901Z,101008.44
2023-02-02T14:50:36.926Z,101184.47
2023-02-02T14:53:09.400Z,101169.66
2023-02-02T14:55:54.087Z,101190.81
2023-02-02T14:58:28.324Z,101104.88
2023-02-02T15:01:09.606Z,101200.53
2023-02-02T15:03:48.969Z,101195.19
2023-02-02T15:06:32.372Z,101196.91
2023-02-02T15:12:42.327Z,101203.97
2023-02-02T15:15:24.059Z,101210.31
2023-02-02T15:18:05.346Z,101212.97
2023-02-02T15:20:37.587Z,101211.25
2023-02-02T15:23:10.266Z,101211.25
2023-02-02T15:25:45.488Z,101222.84
2023-02-02T15:28:25.969Z,101222.84
2023-02-02T15:30:59.699Z,101238.03
2023-02-02T15:33:31.120Z,101227.31
2023-02-02T15:36:04.961Z,101228.19
2023-02-02T15:38:37.033Z,101236.22
2023-02-02T15:41:09.236Z,101231.72
2023-02-02T15:43:39.875Z,101241.47
2023-02-02T15:46:12.823Z,101245.13
2023-02-02T15:48:43.471Z,101241.47
2023-02-02T15:51:20.454Z,101240.59
2023-02-02T15:53:52.018Z,101198.84
2023-02-02T15:56:29.375Z,101245.94
2023-02-02T15:59:01.950Z,101237.78
2023-02-02T16:01:44.608Z,101234.41
2023-02-02T16:04:18.791Z,101239.75
2023-02-02T16:06:47.831Z,101242.56
2023-02-02T16:09:25.830Z,101250.47
2023-02-02T16:11:54.528Z,101262.03
2023-02-02T16:14:24.663Z,101257.53
2023-02-02T16:16:52.949Z,101258.50
2023-02-02T16:19:22.865Z,101246.81
2023-02-02T16:21:55.753Z,101241.47
2023-02-02T16:24:27.317Z,101246.81
2023-02-02T16:26:58.885Z,101236.97
2023-02-02T16:29:29.610Z,101230.75
2023-02-02T16:31:58.593Z,101229.06
2023-02-02T16:34:46.829Z,101234.41
2023-02-02T16:37:17.529Z,101231.00
2023-02-02T16:39:45.997Z,101242.56
2023-02-02T16:42:26.194Z,101237.09
2023-02-02T16:44:56.884Z,101241.47
2023-02-02T16:47:39.514Z,101234.41
2023-02-02T16:50:27.712Z,101241.47
2023-02-02T16:52:59.595Z,101245.13
2023-02-02T16:55:43.445Z,101234.41
2023-02-02T16:58:19.233Z,101237.09
2023-02-02T17:01:12.619Z,101245.13
2023-02-02T17:03:51.932Z,101227.31
2023-02-02T17:06:38.378Z,101230.00
2023-02-02T17:09:27.812Z,101225.63
2023-02-02T17:12:02.364Z,101232.69
2023-02-02T17:14:34.044Z,101231.00
2023-02-02T17:17:06.820Z,101213.72
2023-02-02T17:19:35.288Z,101215.78
2023-02-02T17:22:06.378Z,101200.69
2023-02-02T17:24:34.933Z,101221.97
2023-02-02T17:27:03.759Z,101181.09
2023-02-02T17:29:32.229Z,101234.41
2023-02-02T17:32:00.470Z,101218.34
2023-02-02T17:34:31.057Z,101217.34
2023-02-02T17:37:00.475Z,101218.34
2023-02-02T17:39:28.697Z,101206.63
2023-02-02T17:41:57.321Z,101196.91
2023-02-02T17:44:25.462Z,101195.19
2023-02-02T17:46:53.707Z,101196.91
2023-02-02T17:49:21.994Z,101191.56
2023-02-02T17:51:51.634Z,101198.72
2023-02-02T17:54:20.278Z,101196.91
2023-02-02T17:56:48.481Z,101202.28
2023-02-02T17:59:16.640Z,101206.75
2023-02-02T18:01:45.682Z,101203.97
2023-02-02T18:04:15.954Z,101185.44
2023-02-02T18:06:44.216Z,101207.63
2023-02-02T18:09:14.212Z,101202.28
2023-02-02T18:11:42.711Z,101202.28
2023-02-02T18:14:11.305Z,101205.91
2023-02-02T18:16:39.439Z,101200.53
2023-02-02T18:19:07.620Z,101196.06
2023-02-02T18:21:35.865Z,101202.28
2023-02-02T18:24:04.126Z,101206.75
2023-02-02T18:26:34.876Z,101200.53
2023-02-02T18:29:03.060Z,101191.56
2023-02-02T18:31:32.144Z,101195.19
2023-02-02T18:34:00.484Z,101190.69
2023-02-02T18:36:28.678Z,101191.56
2023-02-02T18:38:58.193Z,101189.72
2023-02-02T18:41:26.571Z,101191.56
2023-02-02T18:43:56.815Z,101196.91
2023-02-02T18:46:26.730Z,101196.91
2023-02-02T18:48:56.810Z,101174.00
2023-02-02T18:51:25.366Z,101174.63
2023-02-02T18:53:59.916Z,101170.25
2023-02-02T18:56:29.067Z,101175.72
2023-02-02T18:58:59.468Z,101181.91
2023-02-02T19:01:27.818Z,101172.06
2023-02-02T19:03:58.394Z,101161.59
2023-02-02T19:06:44.239Z,101177.44
2023-02-02T19:09:17.265Z,101166.72
2023-02-02T19:11:47.962Z,101172.06
2023-02-02T19:14:19.628Z,101161.34
2023-02-02T19:16:50.097Z,101154.31
2023-02-02T19:19:25.092Z,101147.47
2023-02-02T19:21:56.504Z,101143.59
2023-02-02T19:24:27.165Z,101142.84
2023-02-02T19:26:55.876Z,101148.97
2023-02-02T19:29:31.693Z,101150.66
2023-02-02T19:32:03.470Z,101129.47
2023-02-02T19:34:35.261Z,101130.09
2023-02-02T19:37:13.883Z,101127.53
2023-02-02T19:39:42.039Z,101131.91
2023-02-02T19:42:12.806Z,101113.16
2023-02-02T19:44:42.563Z,101106.94
2023-02-02T19:47:22.551Z,101107.81
2023-02-02T19:49:50.713Z,101114.84
2023-02-02T19:52:23.776Z,101100.75
2023-02-02T19:54:52.436Z,101106.94
2023-02-02T19:57:25.505Z,101102.44
2023-02-02T19:59:56.052Z,101104.13
2023-02-02T20:02:53.337Z,101105.13
2023-02-02T20:05:23.280Z,101095.41
2023-02-02T20:07:57.413Z,101088.31
2023-02-02T20:10:27.689Z,101098.06
2023-02-02T20:12:56.550Z,101090.03
2023-02-02T20:15:36.322Z,101088.31
2023-02-02T20:18:07.014Z,101105.25
2023-02-02T20:20:40.861Z,101107.81
2023-02-02T20:23:24.055Z,101093.66
2023-02-02T20:25:52.481Z,101090.03
2023-02-02T20:28:43.466Z,101086.38
2023-02-02T20:31:17.110Z,101080.16
2023-02-02T20:33:47.591Z,101065.22
2023-02-02T20:36:39.328Z,101069.56
2023-02-02T20:39:23.857Z,101057.91
2023-02-02T20:41:52.314Z,101025.84
2023-02-02T20:44:20.620Z,101066.91
2023-02-02T20:46:50.933Z,101061.53
2023-02-02T20:49:20.809Z,101061.53
2023-02-02T20:51:49.168Z,101063.25
2023-02-02T20:54:17.626Z,101051.94
2023-02-02T20:56:45.901Z,101064.97
2023-02-02T20:59:14.216Z,101064.09
2023-02-02T21:01:42.533Z,101064.09
2023-02-02T21:04:12.205Z,101053.50
2023-02-02T21:06:41.905Z,101056.91
2023-02-02T21:09:11.552Z,101052.56
2023-02-02T21:11:41.183Z,101048.88
2023-02-02T21:14:09.545Z,101011.47
2023-02-02T21:16:38.311Z,101050.59
2023-02-02T21:19:06.646Z,101052.56
2023-02-02T21:21:36.380Z,101047.19
2023-02-02T21:24:04.574Z,101047.06
2023-02-02T21:26:32.764Z,101038.19
2023-02-02T21:29:01.218Z,101046.22
2023-02-02T21:31:30.175Z,101047.19
2023-02-02T21:33:58.573Z,101043.53
2023-02-02T21:36:34.610Z,101039.03
2023-02-02T21:39:22.444Z,101043.53
2023-02-02T21:41:51.469Z,101030.16
2023-02-02T21:44:22.591Z,101020.41
2023-02-02T21:46:52.671Z,101016.75
2023-02-02T21:49:23.957Z,101002.63
2023-02-02T21:51:52.751Z,100984.88
2023-02-02T21:54:27.421Z,100972.72
2023-02-02T21:56:56.582Z,100982.94
2023-02-02T21:59:27.146Z,100966.88
2023-02-02T22:01:55.655Z,100961.50
2023-02-02T22:04:25.602Z,100956.16
2023-02-02T22:06:55.130Z,100945.69
2023-02-02T22:09:26.604Z,100940.09
2023-02-02T22:11:59.327Z,100936.53
2023-02-02T22:14:34.475Z,100929.38
2023-02-02T22:17:02.750Z,100932.06
2023-02-02T22:19:35.699Z,100916.00
2023-02-02T22:22:13.531Z,100898.00
2023-02-02T22:24:44.041Z,100911.59
2023-02-02T22:27:21.969Z,100907.97
2023-02-02T22:29:51.015Z,100900.88
2023-02-02T22:32:19.435Z,100895.53
2023-02-02T22:34:47.560Z,100891.28
2023-02-02T22:37:15.771Z,100891.88
2023-02-02T22:39:45.440Z,100884.81
2023-02-02T22:42:13.540Z,100886.53
2023-02-02T22:44:44.058Z,100875.81
2023-02-02T22:47:12.503Z,100864.25
2023-02-02T22:49:40.650Z,100859.75
2023-02-02T22:52:09.205Z,100854.66
2023-02-02T22:54:37.343Z,100849.03
2023-02-02T22:57:06.871Z,100839.16
2023-02-02T22:59:35.055Z,100823.09
2023-02-02T23:02:03.429Z,100810.84
2023-02-02T23:04:31.533Z,100808.16
2023-02-02T23:07:00.042Z,100793.78
2023-02-02T23:09:28.241Z,100800.84
2023-02-02T23:11:56.482Z,100781.25
2023-02-02T23:14:26.128Z,100782.09
2023-02-02T23:16:54.410Z,100775.03
2023-02-02T23:19:22.853Z,100767.84
2023-02-02T23:21:50.939Z,100763.38
2023-02-02T23:24:19.123Z,100747.28
2023-02-02T23:26:47.476Z,100735.13
2023-02-02T23:29:15.643Z,100741.94
2023-02-02T23:31:45.369Z,100736.59
2023-02-02T23:34:13.773Z,100727.69
2023-02-02T23:36:41.985Z,100717.13
2023-02-02T23:39:10.243Z,100718.81
2023-02-02T23:41:38.480Z,100702.75
2023-02-02T23:44:06.756Z,100699.38
2023-02-02T23:46:35.042Z,100704.47
2023-02-02T23:49:04.936Z,100701.06
2023-02-02T23:51:33.509Z,100678.03
2023-02-02T23:54:02.496Z,100692.88
2023-02-02T23:56:30.696Z,100688.41
2023-02-02T23:58:58.922Z,100675.97
